SCIE 231200Z 22007KT CAVOK 15/08 Q1016